Time;durP1;ratioP1;P1;durP2;ratioP2;P2;SDS_P1;SDS_P2;PMS_P1;PMS_P2;Temp;Humidity;BMP_temperature;BMP_pressure;BME280_temperature;BME280_humidity;BME280_pressure;Samples;Min_cycle;Max_cycle;Signal;HPM_P1;HPM_P2
2022/07/25 00:02:29;;;;;;;9.55;5.68;;;;;;;-141.48;100.00;69781.59;4951751;30;20102;-63
2022/07/25 00:05:00;;;;;;;6.22;5.82;;;;;;;-141.48;100.00;69781.59;4951244;30;20114;-63
2022/07/25 00:07:30;;;;;;;4.85;4.35;;;;;;;-141.48;100.00;69781.59;4951771;30;20080;-63
2022/07/25 00:10:01;;;;;;;6.50;6.10;;;;;;;-141.48;100.00;69781.59;4951543;30;20412;-63
2022/07/25 00:12:31;;;;;;;6.22;5.63;;;;;;;-141.48;100.00;69781.59;4951536;30;20527;-64
2022/07/25 00:15:03;;;;;;;6.85;6.25;;;;;;;-141.48;100.00;69781.59;4951159;30;20489;-63
2022/07/25 00:17:33;;;;;;;6.13;5.80;;;;;;;-141.48;100.00;69781.59;4951062;30;20544;-63
2022/07/25 00:20:04;;;;;;;5.70;5.30;;;;;;;-141.48;100.00;69781.59;4951350;30;20065;-65
2022/07/25 00:22:35;;;;;;;6.03;5.55;;;;;;;-141.48;100.00;69781.59;4951502;30;20031;-63
2022/07/25 00:25:06;;;;;;;8.98;6.90;;;;;;;-141.48;100.00;69781.59;4950944;30;20108;-64
2022/07/25 00:27:36;;;;;;;6.00;5.07;;;;;;;-141.48;100.00;69781.59;4951271;30;20074;-64
2022/07/25 00:30:07;;;;;;;5.10;4.80;;;;;;;-141.48;100.00;69781.59;4951330;30;20548;-63
2022/07/25 00:32:38;;;;;;;7.88;7.35;;;;;;;-141.48;100.00;69781.59;4951314;30;20481;-63
2022/07/25 00:35:08;;;;;;;5.32;4.97;;;;;;;-141.48;100.00;69781.59;4950867;30;20027;-66
2022/07/25 00:37:39;;;;;;;8.23;7.03;;;;;;;-141.48;100.00;69781.59;4951281;30;20505;-63
2022/07/25 00:40:10;;;;;;;6.68;5.47;;;;;;;-141.48;100.00;69781.59;4951104;30;20504;-63
2022/07/25 00:42:40;;;;;;;5.85;5.45;;;;;;;-141.48;100.00;69781.59;4951209;30;20032;-63
2022/07/25 00:45:11;;;;;;;6.65;5.53;;;;;;;-141.48;100.00;69781.59;4950889;30;20027;-64
2022/07/25 00:47:41;;;;;;;18.63;7.38;;;;;;;-141.48;100.00;69781.59;4950962;30;20031;-64
2022/07/25 00:50:12;;;;;;;5.60;5.20;;;;;;;-141.48;100.00;69781.59;4935229;30;20126;-63
2022/07/25 00:52:42;;;;;;;6.70;5.38;;;;;;;-141.48;100.00;69781.59;4951078;30;20466;-63
2022/07/25 00:55:13;;;;;;;7.93;7.25;;;;;;;-141.48;100.00;69781.59;4950646;30;20114;-63
2022/07/25 00:57:44;;;;;;;6.07;5.78;;;;;;;-141.48;100.00;69781.59;4950865;30;20031;-65
2022/07/25 01:00:15;;;;;;;6.80;6.22;;;;;;;-141.48;100.00;69781.59;4951079;30;20062;-62
2022/07/25 01:02:45;;;;;;;6.05;5.75;;;;;;;-141.48;100.00;69781.59;4950920;30;20408;-63
2022/07/25 01:05:16;;;;;;;5.50;5.18;;;;;;;-141.48;100.00;69781.59;4950672;29;20027;-63
2022/07/25 01:07:47;;;;;;;7.53;6.40;;;;;;;-141.48;100.00;69781.59;4954699;30;20168;-63
2022/07/25 01:10:17;;;;;;;5.63;5.22;;;;;;;-141.48;100.00;69781.59;4953487;30;20028;-64
2022/07/25 01:12:50;;;;;;;5.65;5.25;;;;;;;-141.48;100.00;69781.59;4954779;30;20445;-64
2022/07/25 01:15:24;;;;;;;7.20;6.60;;;;;;;-141.48;100.00;69781.59;4954270;30;20039;-63
2022/07/25 01:17:54;;;;;;;7.05;6.55;;;;;;;-141.48;100.00;69781.59;4938089;30;20079;-63
2022/07/25 01:20:26;;;;;;;6.53;6.03;;;;;;;-141.48;100.00;69781.59;4938330;30;20549;-63
2022/07/25 01:22:57;;;;;;;5.88;5.38;;;;;;;-141.48;100.00;69781.59;4954585;30;20046;-63
2022/07/25 01:25:28;;;;;;;5.55;5.15;;;;;;;-141.48;100.00;69781.59;4938113;30;20031;-63
2022/07/25 01:27:58;;;;;;;6.05;5.57;;;;;;;-141.48;100.00;69781.59;4954354;30;20032;-63
2022/07/25 01:30:29;;;;;;;6.43;6.03;;;;;;;-141.48;100.00;69781.59;4953913;30;20153;-63
2022/07/25 01:32:59;;;;;;;6.07;5.55;;;;;;;-141.48;100.00;69781.59;4954420;30;20035;-63
2022/07/25 01:35:30;;;;;;;6.45;6.13;;;;;;;-141.48;100.00;69781.59;4953886;30;20035;-63
2022/07/25 01:38:00;;;;;;;7.20;6.03;;;;;;;-141.48;100.00;69781.59;4954181;30;20023;-63
2022/07/25 01:40:31;;;;;;;36.30;7.63;;;;;;;-141.48;100.00;69781.59;4954254;30;20481;-64
2022/07/25 01:43:01;;;;;;;6.20;5.65;;;;;;;-141.48;100.00;69781.59;4953850;30;20037;-64
2022/07/25 01:45:32;;;;;;;6.63;6.05;;;;;;;-141.48;100.00;69781.59;4954096;30;20028;-63
2022/07/25 01:48:03;;;;;;;6.25;5.68;;;;;;;-141.48;100.00;69781.59;4954124;30;20047;-63
2022/07/25 01:50:33;;;;;;;5.80;5.40;;;;;;;-141.48;100.00;69781.59;4953895;30;20122;-62
2022/07/25 01:53:04;;;;;;;6.18;5.60;;;;;;;-141.48;100.00;69781.59;4953703;30;20036;-63
2022/07/25 01:55:34;;;;;;;6.40;5.93;;;;;;;-141.48;100.00;69781.59;4953705;30;20039;-63
2022/07/25 01:58:06;;;;;;;5.65;5.25;;;;;;;-141.48;100.00;69781.59;4953808;30;20039;-65
2022/07/25 02:00:36;;;;;;;6.70;6.30;;;;;;;-141.48;100.00;69781.59;4953925;30;20405;-63
2022/07/25 02:06:00;;;;;;;6.13;5.72;;;;;;;-141.48;100.00;69781.59;4953684;30;20120;-63
2022/07/25 02:08:31;;;;;;;5.60;5.20;;;;;;;-141.48;100.00;69781.59;4953731;30;20023;-62
2022/07/25 02:11:02;;;;;;;5.63;5.30;;;;;;;-141.48;100.00;69781.59;4953828;30;20042;-63
2022/07/25 02:13:32;;;;;;;6.10;5.72;;;;;;;-141.48;100.00;69781.59;4953379;30;20110;-63
2022/07/25 02:16:03;;;;;;;10.98;5.97;;;;;;;-141.48;100.00;69781.59;4953285;29;20058;-63
2022/07/25 02:18:33;;;;;;;8.48;7.78;;;;;;;-141.48;100.00;69781.59;4953021;30;20499;-63
2022/07/25 02:21:07;;;;;;;7.07;6.57;;;;;;;-141.48;100.00;69781.59;4953491;30;20063;-64
2022/07/25 02:23:37;;;;;;;6.28;5.78;;;;;;;-141.48;100.00;69781.59;4952907;30;20031;-61
2022/07/25 02:26:08;;;;;;;7.13;6.43;;;;;;;-141.48;100.00;69781.59;4953422;30;20035;-63
2022/07/25 02:28:40;;;;;;;6.78;6.13;;;;;;;-141.48;100.00;69781.59;4953179;30;20092;-63
2022/07/25 02:31:10;;;;;;;6.13;5.82;;;;;;;-141.48;100.00;69781.59;4953101;30;20032;-63
2022/07/25 02:33:41;;;;;;;5.63;5.22;;;;;;;-141.48;100.00;69781.59;4952974;30;20474;-63
2022/07/25 02:36:11;;;;;;;5.97;5.57;;;;;;;-141.48;100.00;69781.59;4953094;30;20038;-64
2022/07/25 02:38:42;;;;;;;5.97;5.68;;;;;;;-141.48;100.00;69781.59;4953095;30;20031;-64
2022/07/25 02:41:12;;;;;;;6.55;5.93;;;;;;;-141.48;100.00;69781.59;4952970;30;20135;-64
2022/07/25 02:43:42;;;;;;;14.35;6.95;;;;;;;-141.48;100.00;69781.59;4952945;30;20130;-64
2022/07/25 02:46:13;;;;;;;8.55;7.80;;;;;;;-141.48;100.00;69781.59;4953148;30;20069;-64
2022/07/25 02:48:43;;;;;;;8.77;8.02;;;;;;;-141.48;100.00;69781.59;4952998;30;20031;-63
2022/07/25 02:51:14;;;;;;;7.40;6.70;;;;;;;-141.48;100.00;69781.59;4953095;30;20034;-63
2022/07/25 02:53:44;;;;;;;16.30;7.03;;;;;;;-141.48;100.00;69781.59;4952322;30;20035;-64
2022/07/25 02:56:15;;;;;;;5.93;5.63;;;;;;;-141.48;100.00;69781.59;4952845;30;20031;-64
2022/07/25 02:58:45;;;;;;;6.07;5.68;;;;;;;-141.48;100.00;69781.59;4952692;30;20499;-64
2022/07/25 03:01:16;;;;;;;5.18;4.78;;;;;;;-141.48;100.00;69781.59;4952658;30;20038;-64
2022/07/25 03:03:46;;;;;;;7.25;6.85;;;;;;;-141.48;100.00;69781.59;4952509;30;20027;-64
2022/07/25 03:06:16;;;;;;;6.55;6.15;;;;;;;-141.48;100.00;69781.59;4952486;30;20035;-64
2022/07/25 03:08:47;;;;;;;7.53;6.78;;;;;;;-141.48;100.00;69781.59;4952669;30;20126;-64
2022/07/25 03:11:17;;;;;;;7.00;6.60;;;;;;;-141.48;100.00;69781.59;4952629;30;20042;-64
2022/07/25 03:13:48;;;;;;;6.90;6.45;;;;;;;-141.48;100.00;69781.59;4951992;30;20031;-63
2022/07/25 03:16:18;;;;;;;5.93;5.53;;;;;;;-141.48;100.00;69781.59;4952348;30;20039;-64
2022/07/25 03:18:49;;;;;;;6.05;5.45;;;;;;;-141.48;100.00;69781.59;4952362;30;20525;-64
2022/07/25 03:21:19;;;;;;;7.72;7.03;;;;;;;-141.48;100.00;69781.59;4952526;30;20036;-64
2022/07/25 03:23:50;;;;;;;6.20;5.80;;;;;;;-141.48;100.00;69781.59;4952232;30;20550;-63
2022/07/25 03:26:20;;;;;;;5.13;4.78;;;;;;;-141.48;100.00;69781.59;4952388;30;20027;-64
2022/07/25 03:28:50;;;;;;;7.03;6.53;;;;;;;-141.48;100.00;69781.59;4951668;30;20388;-64
2022/07/25 03:31:21;;;;;;;6.45;6.05;;;;;;;-141.48;100.00;69781.59;4951972;30;20034;-64
2022/07/25 03:33:51;;;;;;;5.55;5.15;;;;;;;-141.48;100.00;69781.59;4951854;30;20046;-64
2022/07/25 03:36:21;;;;;;;8.63;5.93;;;;;;;-141.48;100.00;69781.59;4952374;30;20027;-64
2022/07/25 03:38:52;;;;;;;6.25;5.90;;;;;;;-141.48;100.00;69781.59;4952066;30;20035;-64
2022/07/25 03:41:22;;;;;;;9.63;6.38;;;;;;;-141.48;100.00;69781.59;4952143;30;20027;-64
2022/07/25 03:43:53;;;;;;;7.57;6.38;;;;;;;-141.48;100.00;69781.59;4951172;30;20058;-64
2022/07/25 03:46:23;;;;;;;7.45;6.85;;;;;;;-141.48;100.00;69781.59;4935701;30;20023;-66
2022/07/25 03:48:54;;;;;;;8.05;7.40;;;;;;;-141.48;100.00;69781.59;4952051;30;20029;-65
2022/07/25 03:51:25;;;;;;;6.28;5.78;;;;;;;-141.48;100.00;69781.59;4935859;30;20027;-64
2022/07/25 03:54:01;;;;;;;9.45;6.43;;;;;;;-141.48;100.00;69781.59;4951628;30;20035;-64
2022/07/25 03:56:36;;;;;;;7.68;7.18;;;;;;;-141.48;100.00;69781.59;4952005;30;20562;-64
2022/07/25 03:59:07;;;;;;;7.20;6.70;;;;;;;-141.48;100.00;69781.59;4951625;30;20037;-65
2022/07/25 04:01:38;;;;;;;6.45;5.93;;;;;;;-141.48;100.00;69781.59;4951627;30;20057;-64
2022/07/25 04:04:09;;;;;;;6.13;5.63;;;;;;;-141.48;100.00;69781.59;4951571;30;20031;-65
2022/07/25 04:06:40;;;;;;;7.22;6.03;;;;;;;-141.48;100.00;69781.59;4951432;30;20111;-64
2022/07/25 04:09:11;;;;;;;7.45;6.13;;;;;;;-141.48;100.00;69781.59;4951645;30;20566;-64
2022/07/25 04:11:42;;;;;;;6.55;5.95;;;;;;;-141.48;100.00;69781.59;4951481;30;20063;-64
2022/07/25 04:14:13;;;;;;;9.80;6.57;;;;;;;-141.48;100.00;69781.59;4951387;30;20464;-66
2022/07/25 04:16:43;;;;;;;10.57;6.55;;;;;;;-141.48;100.00;69781.59;4951499;30;20471;-64
2022/07/25 04:19:14;;;;;;;8.18;7.43;;;;;;;-141.48;100.00;69781.59;4951329;30;20028;-64
2022/07/25 04:21:44;;;;;;;7.25;6.65;;;;;;;-141.48;100.00;69781.59;4951415;30;20035;-64
2022/07/25 04:24:15;;;;;;;8.75;6.13;;;;;;;-141.48;100.00;69781.59;4935021;30;20027;-64
2022/07/25 04:26:45;;;;;;;6.47;6.07;;;;;;;-141.48;100.00;69781.59;4951485;30;20027;-64
2022/07/25 04:29:15;;;;;;;7.95;7.45;;;;;;;-141.48;100.00;69781.59;4951380;30;20058;-65
2022/07/25 04:31:46;;;;;;;7.45;6.85;;;;;;;-141.48;100.00;69781.59;4951450;30;20381;-64
2022/07/25 04:34:16;;;;;;;6.97;6.45;;;;;;;-141.48;100.00;69781.59;4934810;30;20031;-64
2022/07/25 04:36:47;;;;;;;7.10;6.63;;;;;;;-141.48;100.00;69781.59;4951434;30;20081;-63
2022/07/25 04:39:17;;;;;;;9.40;7.47;;;;;;;-141.48;100.00;69781.59;4951351;30;20624;-64
2022/07/25 04:41:47;;;;;;;14.15;6.97;;;;;;;-141.48;100.00;69781.59;4951161;30;20111;-64
2022/07/25 04:44:18;;;;;;;7.30;6.57;;;;;;;-141.48;100.00;69781.59;4950763;30;20050;-64
2022/07/25 04:46:48;;;;;;;7.22;6.78;;;;;;;-141.48;100.00;69781.59;4951287;30;20027;-65
2022/07/25 04:49:19;;;;;;;7.15;6.70;;;;;;;-141.48;100.00;69781.59;4951401;30;20093;-64
2022/07/25 04:51:50;;;;;;;9.68;8.82;;;;;;;-141.48;100.00;69781.59;4951274;30;20427;-63
2022/07/25 04:54:20;;;;;;;7.25;6.75;;;;;;;-141.48;100.00;69781.59;4951059;30;20043;-63
2022/07/25 04:56:51;;;;;;;5.70;5.40;;;;;;;-141.48;100.00;69781.59;4950948;30;20058;-63
2022/07/25 04:59:21;;;;;;;7.43;6.70;;;;;;;-141.48;100.00;69781.59;4951080;30;20473;-64
2022/07/25 05:01:51;;;;;;;8.68;6.70;;;;;;;-141.48;100.00;69781.59;4951234;30;20110;-63
2022/07/25 05:04:22;;;;;;;10.10;9.02;;;;;;;-141.48;100.00;69781.59;4950686;30;20465;-64
2022/07/25 05:06:52;;;;;;;8.68;8.07;;;;;;;-141.48;100.00;69781.59;4951118;30;20035;-63
2022/07/25 05:09:23;;;;;;;6.72;6.13;;;;;;;-141.48;100.00;69781.59;4950995;30;20051;-63
2022/07/25 05:11:53;;;;;;;7.97;7.25;;;;;;;-141.48;100.00;69781.59;4934929;30;20035;-64
2022/07/25 05:14:24;;;;;;;6.68;6.25;;;;;;;-141.48;100.00;69781.59;4950785;30;20039;-63
2022/07/25 05:16:54;;;;;;;7.32;6.72;;;;;;;-141.48;100.00;69781.59;4950811;30;20035;-65
2022/07/25 05:19:24;;;;;;;8.45;7.22;;;;;;;-141.48;100.00;69781.59;4950951;30;20526;-64
2022/07/25 05:21:55;;;;;;;6.82;6.43;;;;;;;-141.48;100.00;69781.59;4950640;30;20031;-64
2022/07/25 05:24:26;;;;;;;8.82;7.43;;;;;;;-141.48;100.00;69781.59;4950673;30;20038;-62
2022/07/25 05:26:56;;;;;;;6.03;5.45;;;;;;;-141.48;100.00;69781.59;4950840;30;20043;-64
2022/07/25 05:29:27;;;;;;;4.72;4.45;;;;;;;-141.48;100.00;69781.59;4950886;30;20019;-65
2022/07/25 05:31:57;;;;;;;5.63;5.22;;;;;;;-141.48;100.00;69781.59;4950772;30;20047;-64
2022/07/25 05:34:28;;;;;;;9.25;5.22;;;;;;;-141.48;100.00;69781.59;4950264;30;20059;-63
2022/07/25 05:36:58;;;;;;;5.80;5.32;;;;;;;-141.48;100.00;69781.59;4951326;30;20103;-63
2022/07/25 05:39:29;;;;;;;5.53;5.13;;;;;;;-141.48;100.00;69781.59;4951034;30;20030;-62
2022/07/25 05:41:59;;;;;;;5.63;5.32;;;;;;;-141.48;100.00;69781.59;4951723;30;20043;-64
2022/07/25 05:44:30;;;;;;;4.47;4.25;;;;;;;-141.48;100.00;69781.59;4951009;30;20035;-68
2022/07/25 05:47:00;;;;;;;4.25;3.72;;;;;;;-141.48;100.00;69781.59;4951560;30;20060;-64
2022/07/25 05:49:30;;;;;;;4.90;4.50;;;;;;;-141.48;100.00;69781.59;4951454;30;20035;-64
2022/07/25 05:52:01;;;;;;;5.55;4.32;;;;;;;-141.48;100.00;69781.59;4952391;29;20110;-63
2022/07/25 05:54:33;;;;;;;4.75;4.35;;;;;;;-141.48;100.00;69781.59;4954633;30;20132;-64
2022/07/25 05:57:04;;;;;;;4.70;4.20;;;;;;;-141.48;100.00;69781.59;4954824;30;20066;-66
2022/07/25 05:59:34;;;;;;;3.78;3.53;;;;;;;-141.48;100.00;69781.59;4954855;30;20028;-64
2022/07/25 06:02:05;;;;;;;5.22;4.65;;;;;;;-141.48;100.00;69781.59;4954947;30;20035;-64
2022/07/25 06:04:35;;;;;;;5.03;4.50;;;;;;;-141.48;100.00;69781.59;4954448;30;20031;-63
2022/07/25 06:07:06;;;;;;;10.23;6.05;;;;;;;-141.48;100.00;69781.59;4954503;30;20043;-63
2022/07/25 06:09:37;;;;;;;4.57;4.18;;;;;;;-141.48;100.00;69781.59;4954130;30;20102;-64
2022/07/25 06:12:07;;;;;;;4.72;4.32;;;;;;;-141.48;100.00;69781.59;4954666;30;20035;-63
2022/07/25 06:14:38;;;;;;;4.18;3.90;;;;;;;-141.48;100.00;69781.59;4954205;30;20447;-64
2022/07/25 06:17:08;;;;;;;5.93;3.92;;;;;;;-141.48;100.00;69781.59;4954483;30;20477;-64
2022/07/25 06:19:39;;;;;;;5.68;3.97;;;;;;;-141.48;100.00;69781.59;4954199;30;20541;-63
2022/07/25 06:22:10;;;;;;;5.38;4.03;;;;;;;-141.48;100.00;69781.59;4954145;30;20541;-62
2022/07/25 06:24:41;;;;;;;3.60;3.20;;;;;;;-141.48;100.00;69781.59;4937460;30;20035;-63
2022/07/25 06:27:11;;;;;;;4.28;3.90;;;;;;;-141.48;100.00;69781.59;4953841;30;20477;-63
2022/07/25 06:29:41;;;;;;;6.15;3.67;;;;;;;-141.48;100.00;69781.59;4953860;30;20019;-63
2022/07/25 06:32:12;;;;;;;5.18;4.05;;;;;;;-141.48;100.00;69781.59;4954396;30;20443;-63
2022/07/25 06:34:42;;;;;;;4.28;3.92;;;;;;;-141.48;100.00;69781.59;4953591;30;20084;-64
2022/07/25 06:37:13;;;;;;;3.65;3.45;;;;;;;-141.48;100.00;69781.59;4954334;30;20031;-64
2022/07/25 06:39:43;;;;;;;7.93;4.32;;;;;;;-141.48;100.00;69781.59;4953871;30;20062;-63
2022/07/25 06:42:14;;;;;;;6.80;3.60;;;;;;;-141.48;100.00;69781.59;4937936;30;20070;-63
2022/07/25 06:44:44;;;;;;;3.63;3.42;;;;;;;-141.48;100.00;69781.59;4953546;30;20042;-65
2022/07/25 06:47:15;;;;;;;7.35;5.13;;;;;;;-141.48;100.00;69781.59;4953421;30;20041;-63
2022/07/25 06:49:45;;;;;;;4.95;3.67;;;;;;;-141.48;100.00;69781.59;4953948;30;20100;-65
2022/07/25 06:52:16;;;;;;;12.52;3.90;;;;;;;-141.48;100.00;69781.59;4953678;30;20401;-64
2022/07/25 06:54:46;;;;;;;4.15;3.92;;;;;;;-141.48;100.00;69781.59;4953258;30;20089;-64
2022/07/25 06:57:17;;;;;;;5.00;3.35;;;;;;;-141.48;100.00;69781.59;4953798;30;20054;-64
2022/07/25 06:59:47;;;;;;;4.30;4.07;;;;;;;-141.48;100.00;69781.59;4953253;30;20035;-63
2022/07/25 07:02:18;;;;;;;4.07;3.47;;;;;;;-141.48;100.00;69781.59;4953590;29;20027;-64
2022/07/25 07:04:48;;;;;;;4.35;3.70;;;;;;;-141.48;100.00;69781.59;4952111;30;20035;-64
2022/07/25 07:07:19;;;;;;;8.48;4.45;;;;;;;-141.48;100.00;69781.59;4953271;30;20046;-64
2022/07/25 07:09:49;;;;;;;5.20;4.78;;;;;;;-141.48;100.00;69781.59;4953190;30;20023;-63
2022/07/25 07:12:19;;;;;;;4.10;3.55;;;;;;;-141.48;100.00;69781.59;4953324;30;20392;-63
2022/07/25 07:14:50;;;;;;;5.68;3.35;;;;;;;-141.48;100.00;69781.59;4953067;30;20027;-64
2022/07/25 07:17:20;;;;;;;3.75;3.35;;;;;;;-141.48;100.00;69781.59;4953397;30;20036;-62
2022/07/25 07:19:51;;;;;;;10.80;4.13;;;;;;;-141.48;100.00;69781.59;4937097;30;20039;-66
2022/07/25 07:22:21;;;;;;;6.38;4.03;;;;;;;-141.48;100.00;69781.59;4953030;30;20031;-64
2022/07/25 07:24:51;;;;;;;10.57;4.35;;;;;;;-141.48;100.00;69781.59;4952670;30;20035;-64
2022/07/25 07:27:23;;;;;;;4.15;3.63;;;;;;;-141.48;100.00;69781.59;4952995;30;20031;-63
2022/07/25 07:29:53;;;;;;;9.38;4.70;;;;;;;-141.48;100.00;69781.59;4953315;30;20023;-63
2022/07/25 07:32:23;;;;;;;8.00;4.05;;;;;;;-141.48;100.00;69781.59;4952924;30;20031;-68
2022/07/25 07:34:54;;;;;;;3.08;2.95;;;;;;;-141.48;100.00;69781.59;4952975;30;20043;-64
2022/07/25 07:37:24;;;;;;;2.95;2.85;;;;;;;-141.48;100.00;69781.59;4952754;30;20067;-64
2022/07/25 07:39:55;;;;;;;2.38;2.28;;;;;;;-141.48;100.00;69781.59;4952652;30;20039;-64
2022/07/25 07:42:25;;;;;;;3.45;3.22;;;;;;;-141.48;100.00;69781.59;4952647;30;20042;-65
2022/07/25 07:44:56;;;;;;;4.07;3.33;;;;;;;-141.48;100.00;69781.59;4952572;30;20481;-65
2022/07/25 07:47:26;;;;;;;3.88;3.67;;;;;;;-141.48;100.00;69781.59;4952470;30;20147;-65
2022/07/25 07:49:56;;;;;;;5.53;3.67;;;;;;;-141.48;100.00;69781.59;4952229;30;20481;-65
2022/07/25 07:52:27;;;;;;;3.42;3.22;;;;;;;-141.48;100.00;69781.59;4952339;30;20035;-65
2022/07/25 07:57:46;;;;;;;2.58;2.47;;;;;;;-141.48;100.00;69781.59;4952679;30;20047;-66
2022/07/25 08:00:17;;;;;;;3.47;3.25;;;;;;;-141.48;100.00;69781.59;4936116;30;20039;-66
2022/07/25 08:02:51;;;;;;;2.90;2.80;;;;;;;-141.48;100.00;69781.59;4952326;30;20126;-65
2022/07/25 08:05:25;;;;;;;7.45;4.70;;;;;;;-141.48;100.00;69781.59;4951797;30;20058;-65
2022/07/25 08:07:56;;;;;;;5.65;3.92;;;;;;;-141.48;100.00;69781.59;4952210;30;20027;-66
2022/07/25 08:10:29;;;;;;;3.50;3.30;;;;;;;-141.48;100.00;69781.59;4950724;30;20038;-66
2022/07/25 08:12:59;;;;;;;4.93;4.43;;;;;;;-141.48;100.00;69781.59;4952436;30;20500;-65
2022/07/25 08:15:30;;;;;;;5.32;2.85;;;;;;;-141.48;100.00;69781.59;4951706;29;20031;-64
2022/07/25 08:18:00;;;;;;;3.45;3.25;;;;;;;-141.48;100.00;69781.59;4952097;30;20033;-65
2022/07/25 08:20:31;;;;;;;4.35;4.10;;;;;;;-141.48;100.00;69781.59;4951973;30;20511;-66
2022/07/25 08:23:02;;;;;;;3.55;3.25;;;;;;;-141.48;100.00;69781.59;4951845;30;20031;-67
2022/07/25 08:25:34;;;;;;;4.28;4.00;;;;;;;-141.48;100.00;69781.59;4936329;30;20047;-64
2022/07/25 08:28:05;;;;;;;4.80;3.13;;;;;;;-141.48;100.00;69781.59;4952848;30;20496;-64
2022/07/25 08:30:37;;;;;;;7.60;3.80;;;;;;;-141.48;100.00;69781.59;4935862;30;20043;-66
2022/07/25 08:33:11;;;;;;;4.28;3.97;;;;;;;-141.48;100.00;69781.59;4951966;30;20031;-66
2022/07/25 08:35:53;;;;;;;3.88;3.25;;;;;;;-141.48;100.00;69781.59;4935540;30;20039;-65
2022/07/25 08:38:26;;;;;;;5.68;3.63;;;;;;;-141.48;100.00;69781.59;4951858;30;20032;-65
2022/07/25 08:40:57;;;;;;;3.08;2.92;;;;;;;-141.48;100.00;69781.59;4951788;30;20034;-65
2022/07/25 08:43:31;;;;;;;5.32;4.90;;;;;;;-141.48;100.00;69781.59;4951781;30;20031;-64
2022/07/25 08:46:04;;;;;;;4.05;3.75;;;;;;;-141.48;100.00;69781.59;4951392;30;20427;-67
2022/07/25 08:48:36;;;;;;;7.75;3.05;;;;;;;-141.48;100.00;69781.59;4951499;30;20039;-65
2022/07/25 08:51:08;;;;;;;3.95;3.75;;;;;;;-141.48;100.00;69781.59;4951413;30;20031;-65
2022/07/25 08:53:38;;;;;;;3.03;2.85;;;;;;;-141.48;100.00;69781.59;4951113;30;20039;-64
2022/07/25 08:56:09;;;;;;;9.65;3.65;;;;;;;-141.48;100.00;69781.59;4935725;30;20031;-66
2022/07/25 08:58:40;;;;;;;7.45;4.85;;;;;;;-141.48;100.00;69781.59;4951835;30;20126;-64
2022/07/25 09:01:11;;;;;;;3.55;3.30;;;;;;;-141.48;100.00;69781.59;4951745;30;20050;-65
2022/07/25 09:03:42;;;;;;;4.22;3.92;;;;;;;-141.48;100.00;69781.59;4951221;30;20110;-64
2022/07/25 09:06:20;;;;;;;6.00;4.68;;;;;;;-141.48;100.00;69781.59;4935262;30;20062;-66
2022/07/25 09:08:57;;;;;;;7.88;3.45;;;;;;;-141.48;100.00;69781.59;4935248;30;20382;-66
2022/07/25 09:11:35;;;;;;;4.10;3.55;;;;;;;-141.48;100.00;69781.59;4951353;30;20035;-65
2022/07/25 09:14:11;;;;;;;5.40;3.87;;;;;;;-141.48;100.00;69781.59;4935455;30;20039;-65
2022/07/25 09:16:43;;;;;;;5.43;4.70;;;;;;;-141.48;100.00;69781.59;4935090;30;20475;-65
2022/07/25 09:19:16;;;;;;;3.08;2.85;;;;;;;-141.48;100.00;69781.59;4951278;30;20155;-66
2022/07/25 09:22:05;;;;;;;3.17;2.95;;;;;;;-141.48;100.00;69781.59;4950081;30;20042;-65
2022/07/25 09:24:35;;;;;;;2.85;2.67;;;;;;;-141.48;100.00;69781.59;4950980;29;20180;-66
2022/07/25 09:27:09;;;;;;;4.53;3.13;;;;;;;-141.48;100.00;69781.59;4952658;29;20039;-65
2022/07/25 09:29:43;;;;;;;3.00;2.83;;;;;;;-141.48;100.00;69781.59;4954582;30;20453;-66
2022/07/25 09:32:21;;;;;;;3.78;3.58;;;;;;;-141.48;100.00;69781.59;4953553;30;20103;-65
2022/07/25 09:34:52;;;;;;;6.05;3.45;;;;;;;-141.48;100.00;69781.59;4938415;30;20031;-66
2022/07/25 09:37:26;;;;;;;2.90;2.70;;;;;;;-141.48;100.00;69781.59;4954689;30;20027;-65
2022/07/25 09:39:56;;;;;;;4.40;4.13;;;;;;;-141.48;100.00;69781.59;4953490;30;20031;-64
2022/07/25 09:42:31;;;;;;;3.55;3.35;;;;;;;-141.48;100.00;69781.59;4938200;30;20034;-65
2022/07/25 09:45:11;;;;;;;2.38;2.28;;;;;;;-141.48;100.00;69781.59;4954634;30;20070;-66
2022/07/25 09:48:00;;;;;;;4.53;3.13;;;;;;;-141.48;100.00;69781.59;4955099;30;20027;-66
2022/07/25 09:50:32;;;;;;;2.90;2.72;;;;;;;-141.48;100.00;69781.59;4955078;30;20489;-65
2022/07/25 09:53:02;;;;;;;2.13;2.03;;;;;;;-141.48;100.00;69781.59;4938908;30;20057;-65
2022/07/25 09:55:32;;;;;;;2.47;2.30;;;;;;;-141.48;100.00;69781.59;4954305;30;20031;-66
2022/07/25 09:58:03;;;;;;;3.70;3.42;;;;;;;-141.48;100.00;69781.59;4954539;30;20084;-65
2022/07/25 10:00:34;;;;;;;3.40;3.20;;;;;;;-141.48;100.00;69781.59;4938478;30;20550;-66
2022/07/25 10:03:33;;;;;;;2.10;2.00;;;;;;;-141.48;100.00;69781.59;4938198;30;20039;-65
2022/07/25 10:06:19;;;;;;;;;;;;;;;-141.48;100.00;69781.59;4954583;30;20073;-65
2022/07/25 10:08:50;;;;;;;3.30;3.03;;;;;;;-141.48;100.00;69781.59;4954298;30;19914;-66
2022/07/25 10:11:22;;;;;;;3.42;2.75;;;;;;;-141.48;100.00;69781.59;4953965;30;20061;-65
2022/07/25 10:13:54;;;;;;;5.05;2.70;;;;;;;-141.48;100.00;69781.59;4954015;30;20473;-66
2022/07/25 10:16:25;;;;;;;3.55;3.25;;;;;;;-141.48;100.00;69781.59;4953966;30;20035;-66
2022/07/25 10:18:57;;;;;;;2.38;2.28;;;;;;;-141.48;100.00;69781.59;4953972;30;20031;-66
2022/07/25 10:21:28;;;;;;;2.58;2.47;;;;;;;-141.48;100.00;69781.59;4953845;30;20066;-66
2022/07/25 10:24:04;;;;;;;2.58;2.47;;;;;;;-141.48;100.00;69781.59;4953894;30;20349;-66
2022/07/25 10:26:49;;;;;;;3.47;3.22;;;;;;;-141.48;100.00;69781.59;4953839;30;20408;-66
2022/07/25 10:29:20;;;;;;;4.55;2.47;;;;;;;-141.48;100.00;69781.59;4954071;30;20023;-65
2022/07/25 10:31:50;;;;;;;3.03;2.60;;;;;;;-141.48;100.00;69781.59;4953987;30;20435;-65
2022/07/25 10:34:32;;;;;;;4.22;3.83;;;;;;;-141.48;100.00;69781.59;4953052;30;20370;-65
2022/07/25 10:37:15;;;;;;;5.85;4.32;;;;;;;-141.48;100.00;69781.59;4953829;29;20039;-65
2022/07/25 10:39:47;;;;;;;2.95;2.75;;;;;;;-141.48;100.00;69781.59;4953632;30;20039;-65
2022/07/25 10:42:21;;;;;;;3.30;3.10;;;;;;;-141.48;100.00;69781.59;4937610;30;20545;-65
2022/07/25 10:44:57;;;;;;;2.97;2.75;;;;;;;-141.48;100.00;69781.59;4953193;30;20611;-65
2022/07/25 10:47:28;;;;;;;2.53;2.33;;;;;;;-141.48;100.00;69781.59;4953606;30;20039;-65
2022/07/25 10:50:02;;;;;;;3.28;2.85;;;;;;;-141.48;100.00;69781.59;4953817;30;20106;-65
2022/07/25 10:55:08;;;;;;;7.13;3.47;;;;;;;-141.48;100.00;69781.59;4969880;29;20051;-66
2022/07/25 10:57:38;;;;;;;3.28;3.00;;;;;;;-141.48;100.00;69781.59;4959175;29;20561;-65
2022/07/25 11:00:09;;;;;;;3.53;3.38;;;;;;;-141.48;100.00;69781.59;4953319;30;20039;-65
2022/07/25 11:02:40;;;;;;;2.97;2.78;;;;;;;-141.48;100.00;69781.59;4953122;30;20063;-66
2022/07/25 11:05:10;;;;;;;2.97;2.67;;;;;;;-141.48;100.00;69781.59;4952852;30;20058;-65
2022/07/25 11:07:52;;;;;;;2.20;2.10;;;;;;;-141.48;100.00;69781.59;4936751;30;20437;-65
2022/07/25 11:10:27;;;;;;;2.88;2.67;;;;;;;-141.48;100.00;69781.59;4952986;30;20034;-65
2022/07/25 11:12:57;;;;;;;2.83;2.72;;;;;;;-141.48;100.00;69781.59;4953389;30;20035;-65
2022/07/25 11:15:28;;;;;;;2.72;2.63;;;;;;;-141.48;100.00;69781.59;4952709;30;20035;-64
2022/07/25 11:17:58;;;;;;;4.90;3.58;;;;;;;-141.48;100.00;69781.59;4952877;29;20035;-64
2022/07/25 11:20:28;;;;;;;4.78;2.88;;;;;;;-141.48;100.00;69781.59;4937135;30;20081;-65
2022/07/25 11:22:59;;;;;;;3.58;3.38;;;;;;;-141.48;100.00;69781.59;4953026;30;20042;-65
2022/07/25 11:25:29;;;;;;;4.15;3.78;;;;;;;-141.48;100.00;69781.59;4952846;30;20062;-65
2022/07/25 11:28:01;;;;;;;3.90;3.30;;;;;;;-141.48;100.00;69781.59;4952951;29;20019;-65
2022/07/25 11:30:32;;;;;;;4.22;3.67;;;;;;;-141.48;100.00;69781.59;4953384;30;20054;-65
2022/07/25 11:33:03;;;;;;;4.32;3.97;;;;;;;-141.48;100.00;69781.59;4953004;30;20027;-65
2022/07/25 11:35:33;;;;;;;4.18;3.88;;;;;;;-141.48;100.00;69781.59;4952491;30;20031;-65
2022/07/25 11:38:04;;;;;;;3.45;3.25;;;;;;;-141.48;100.00;69781.59;4952631;29;20054;-65